sensor_id;sensor_type;location;lat;lon;timestamp;P1;durP1;ratioP1;P2;durP2;ratioP2
2001;SDS011;1003;48.002;7.788;2023-05-15T00:00:06;3.23;;;2.20;;
2001;SDS011;1003;48.002;7.788;2023-05-15T00:02:35;2.17;;;1.97;;
2001;SDS011;1003;48.002;7.788;2023-05-15T00:05:04;3.30;;;2.40;;
2001;SDS011;1003;48.002;7.788;2023-05-15T00:07:33;2.43;;;2.17;;
2001;SDS011;1003;48.002;7.788;2023-05-15T00:10:01;3.10;;;2.47;;
2001;SDS011;1003;48.002;7.788;2023-05-15T00:12:29;3.20;;;2.57;;
2001;SDS011;1003;48.002;7.788;2023-05-15T00:14:56;2.33;;;2.10;;
2001;SDS011;1003;48.002;7.788;2023-05-15T00:17:23;2.77;;;2.30;;
2001;SDS011;1003;48.002;7.788;2023-05-15T00:19:51;2.97;;;2.27;;
2001;SDS011;1003;48.002;7.788;2023-05-15T00:22:22;3.67;;;2.23;;
2001;SDS011;1003;48.002;7.788;2023-05-15T00:24:50;2.30;;;2.10;;
2001;SDS011;1003;48.002;7.788;2023-05-15T00:27:17;4.50;;;2.17;;
2001;SDS011;1003;48.002;7.788;2023-05-15T00:29:44;2.83;;;2.53;;
2001;SDS011;1003;48.002;7.788;2023-05-15T00:32:11;3.80;;;2.30;;
2001;SDS011;1003;48.002;7.788;2023-05-15T00:34:38;2.87;;;2.27;;
2001;SDS011;1003;48.002;7.788;2023-05-15T00:37:05;3.70;;;2.60;;
2001;SDS011;1003;48.002;7.788;2023-05-15T00:39:34;4.60;;;2.20;;
2001;SDS011;1003;48.002;7.788;2023-05-15T00:42:02;3.73;;;2.20;;
2001;SDS011;1003;48.002;7.788;2023-05-15T00:44:31;3.17;;;2.60;;
2001;SDS011;1003;48.002;7.788;2023-05-15T00:47:01;2.27;;;2.07;;
2001;SDS011;1003;48.002;7.788;2023-05-15T00:49:29;2.70;;;2.30;;
2001;SDS011;1003;48.002;7.788;2023-05-15T00:51:59;2.63;;;2.03;;
2001;SDS011;1003;48.002;7.788;2023-05-15T00:54:27;3.33;;;2.50;;
2001;SDS011;1003;48.002;7.788;2023-05-15T00:56:56;3.30;;;2.47;;
2001;SDS011;1003;48.002;7.788;2023-05-15T00:59:25;4.10;;;2.50;;
2001;SDS011;1003;48.002;7.788;2023-05-15T01:01:55;2.60;;;2.30;;
2001;SDS011;1003;48.002;7.788;2023-05-15T01:04:22;2.47;;;2.17;;
2001;SDS011;1003;48.002;7.788;2023-05-15T01:06:49;2.93;;;2.63;;
2001;SDS011;1003;48.002;7.788;2023-05-15T01:09:18;2.97;;;2.50;;
2001;SDS011;1003;48.002;7.788;2023-05-15T01:11:47;2.20;;;2.00;;
2001;SDS011;1003;48.002;7.788;2023-05-15T01:14:21;2.87;;;2.30;;
2001;SDS011;1003;48.002;7.788;2023-05-15T01:16:48;2.93;;;2.30;;
2001;SDS011;1003;48.002;7.788;2023-05-15T01:19:15;2.77;;;2.40;;
2001;SDS011;1003;48.002;7.788;2023-05-15T01:28:12;3.60;;;2.30;;
2001;SDS011;1003;48.002;7.788;2023-05-15T01:30:44;3.07;;;2.17;;
2001;SDS011;1003;48.002;7.788;2023-05-15T01:33:17;3.30;;;2.30;;
2001;SDS011;1003;48.002;7.788;2023-05-15T01:35:52;2.53;;;2.33;;
2001;SDS011;1003;48.002;7.788;2023-05-15T01:38:28;2.43;;;2.23;;
2001;SDS011;1003;48.002;7.788;2023-05-15T01:41:04;4.17;;;2.30;;
2001;SDS011;1003;48.002;7.788;2023-05-15T01:43:51;3.27;;;2.30;;
2001;SDS011;1003;48.002;7.788;2023-05-15T01:46:28;3.07;;;2.60;;
2001;SDS011;1003;48.002;7.788;2023-05-15T01:48:57;2.67;;;2.37;;
2001;SDS011;1003;48.002;7.788;2023-05-15T01:51:28;3.00;;;2.30;;
2001;SDS011;1003;48.002;7.788;2023-05-15T01:53:57;2.53;;;2.33;;
2001;SDS011;1003;48.002;7.788;2023-05-15T01:56:25;2.37;;;2.17;;
2001;SDS011;1003;48.002;7.788;2023-05-15T01:58:55;2.40;;;2.20;;
2001;SDS011;1003;48.002;7.788;2023-05-15T02:01:24;3.20;;;2.17;;
2001;SDS011;1003;48.002;7.788;2023-05-15T02:03:53;2.20;;;2.00;;
2001;SDS011;1003;48.002;7.788;2023-05-15T02:06:21;2.60;;;2.03;;
2001;SDS011;1003;48.002;7.788;2023-05-15T02:08:50;2.50;;;1.90;;
2001;SDS011;1003;48.002;7.788;2023-05-15T02:11:20;2.10;;;1.90;;
2001;SDS011;1003;48.002;7.788;2023-05-15T02:13:47;2.47;;;1.97;;
2001;SDS011;1003;48.002;7.788;2023-05-15T02:16:18;2.40;;;2.20;;
2001;SDS011;1003;48.002;7.788;2023-05-15T02:18:45;2.60;;;2.13;;
2001;SDS011;1003;48.002;7.788;2023-05-15T02:21:12;2.63;;;2.00;;
2001;SDS011;1003;48.002;7.788;2023-05-15T02:23:40;2.33;;;2.10;;
2001;SDS011;1003;48.002;7.788;2023-05-15T02:26:17;2.07;;;1.80;;
2001;SDS011;1003;48.002;7.788;2023-05-15T02:29:02;2.17;;;1.80;;
2001;SDS011;1003;48.002;7.788;2023-05-15T02:31:45;2.20;;;1.97;;
2001;SDS011;1003;48.002;7.788;2023-05-15T02:34:22;2.97;;;1.87;;
2001;SDS011;1003;48.002;7.788;2023-05-15T02:36:56;2.50;;;1.87;;
2001;SDS011;1003;48.002;7.788;2023-05-15T02:39:26;3.43;;;2.23;;
2001;SDS011;1003;48.002;7.788;2023-05-15T02:41:54;2.70;;;2.07;;
2001;SDS011;1003;48.002;7.788;2023-05-15T02:44:24;2.20;;;2.00;;
2001;SDS011;1003;48.002;7.788;2023-05-15T02:46:54;2.27;;;2.07;;
2001;SDS011;1003;48.002;7.788;2023-05-15T02:49:22;2.60;;;2.20;;
2001;SDS011;1003;48.002;7.788;2023-05-15T02:51:49;2.63;;;2.30;;
2001;SDS011;1003;48.002;7.788;2023-05-15T02:54:16;2.10;;;1.90;;
2001;SDS011;1003;48.002;7.788;2023-05-15T02:56:44;3.20;;;2.43;;
2001;SDS011;1003;48.002;7.788;2023-05-15T02:59:11;2.87;;;2.03;;
2001;SDS011;1003;48.002;7.788;2023-05-15T03:01:43;3.13;;;2.50;;
2001;SDS011;1003;48.002;7.788;2023-05-15T03:04:12;2.70;;;2.50;;
2001;SDS011;1003;48.002;7.788;2023-05-15T03:06:39;3.77;;;2.27;;
2001;SDS011;1003;48.002;7.788;2023-05-15T03:09:07;3.07;;;2.30;;
2001;SDS011;1003;48.002;7.788;2023-05-15T03:11:34;2.67;;;2.13;;
2001;SDS011;1003;48.002;7.788;2023-05-15T03:14:01;3.20;;;2.47;;
2001;SDS011;1003;48.002;7.788;2023-05-15T03:16:28;3.37;;;2.40;;
2001;SDS011;1003;48.002;7.788;2023-05-15T03:18:55;3.00;;;2.50;;
2001;SDS011;1003;48.002;7.788;2023-05-15T03:21:23;3.17;;;2.53;;
2001;SDS011;1003;48.002;7.788;2023-05-15T03:23:50;3.97;;;2.93;;
2001;SDS011;1003;48.002;7.788;2023-05-15T03:26:17;4.57;;;2.73;;
2001;SDS011;1003;48.002;7.788;2023-05-15T03:28:44;3.50;;;2.80;;
2001;SDS011;1003;48.002;7.788;2023-05-15T03:31:11;3.50;;;2.90;;
2001;SDS011;1003;48.002;7.788;2023-05-15T03:33:39;2.80;;;2.47;;
2001;SDS011;1003;48.002;7.788;2023-05-15T03:36:07;5.03;;;2.77;;
2001;SDS011;1003;48.002;7.788;2023-05-15T03:38:36;3.03;;;2.60;;
2001;SDS011;1003;48.002;7.788;2023-05-15T03:41:03;5.10;;;3.00;;
2001;SDS011;1003;48.002;7.788;2023-05-15T03:43:30;4.27;;;3.10;;
2001;SDS011;1003;48.002;7.788;2023-05-15T03:45:57;4.13;;;2.57;;
2001;SDS011;1003;48.002;7.788;2023-05-15T03:48:24;3.40;;;2.50;;
2001;SDS011;1003;48.002;7.788;2023-05-15T03:50:51;3.57;;;2.50;;
2001;SDS011;1003;48.002;7.788;2023-05-15T03:53:18;3.50;;;2.73;;
2001;SDS011;1003;48.002;7.788;2023-05-15T03:55:47;3.50;;;2.83;;
2001;SDS011;1003;48.002;7.788;2023-05-15T03:58:14;2.93;;;2.57;;
2001;SDS011;1003;48.002;7.788;2023-05-15T04:00:41;4.00;;;2.40;;
2001;SDS011;1003;48.002;7.788;2023-05-15T04:03:08;4.73;;;2.90;;
2001;SDS011;1003;48.002;7.788;2023-05-15T04:05:35;5.77;;;3.10;;
2001;SDS011;1003;48.002;7.788;2023-05-15T04:08:02;4.50;;;2.83;;
2001;SDS011;1003;48.002;7.788;2023-05-15T04:10:30;3.93;;;3.03;;
2001;SDS011;1003;48.002;7.788;2023-05-15T04:12:59;3.97;;;2.70;;
2001;SDS011;1003;48.002;7.788;2023-05-15T04:15:26;3.77;;;2.53;;
2001;SDS011;1003;48.002;7.788;2023-05-15T04:17:53;3.87;;;2.77;;
2001;SDS011;1003;48.002;7.788;2023-05-15T04:20:21;3.07;;;2.60;;
2001;SDS011;1003;48.002;7.788;2023-05-15T04:22:52;4.20;;;2.60;;
2001;SDS011;1003;48.002;7.788;2023-05-15T04:25:19;3.37;;;2.73;;
2001;SDS011;1003;48.002;7.788;2023-05-15T04:27:46;3.77;;;2.63;;
2001;SDS011;1003;48.002;7.788;2023-05-15T04:30:15;3.17;;;2.67;;
2001;SDS011;1003;48.002;7.788;2023-05-15T04:32:42;5.07;;;2.80;;
2001;SDS011;1003;48.002;7.788;2023-05-15T04:35:09;3.57;;;2.70;;
2001;SDS011;1003;48.002;7.788;2023-05-15T04:37:37;2.53;;;2.30;;
2001;SDS011;1003;48.002;7.788;2023-05-15T04:40:06;3.93;;;2.80;;
2001;SDS011;1003;48.002;7.788;2023-05-15T04:42:35;3.87;;;3.00;;
2001;SDS011;1003;48.002;7.788;2023-05-15T04:45:03;3.57;;;2.77;;
2001;SDS011;1003;48.002;7.788;2023-05-15T04:47:32;3.87;;;2.37;;
2001;SDS011;1003;48.002;7.788;2023-05-15T04:49:59;4.33;;;2.60;;
2001;SDS011;1003;48.002;7.788;2023-05-15T04:52:26;3.47;;;2.77;;
2001;SDS011;1003;48.002;7.788;2023-05-15T04:54:54;3.40;;;2.87;;
2001;SDS011;1003;48.002;7.788;2023-05-15T04:57:21;3.20;;;2.73;;
2001;SDS011;1003;48.002;7.788;2023-05-15T04:59:49;3.17;;;2.77;;
2001;SDS011;1003;48.002;7.788;2023-05-15T05:02:18;2.50;;;2.30;;
2001;SDS011;1003;48.002;7.788;2023-05-15T05:04:47;3.00;;;2.60;;
2001;SDS011;1003;48.002;7.788;2023-05-15T05:07:15;2.63;;;2.43;;
2001;SDS011;1003;48.002;7.788;2023-05-15T05:09:42;2.77;;;2.40;;
2001;SDS011;1003;48.002;7.788;2023-05-15T05:12:09;3.10;;;2.53;;
2001;SDS011;1003;48.002;7.788;2023-05-15T05:14:37;3.30;;;2.73;;
2001;SDS011;1003;48.002;7.788;2023-05-15T05:17:06;4.27;;;2.90;;
2001;SDS011;1003;48.002;7.788;2023-05-15T05:19:33;4.33;;;2.70;;
2001;SDS011;1003;48.002;7.788;2023-05-15T05:22:02;3.33;;;2.60;;
2001;SDS011;1003;48.002;7.788;2023-05-15T05:24:29;2.80;;;2.50;;
2001;SDS011;1003;48.002;7.788;2023-05-15T05:26:57;3.40;;;2.87;;
2001;SDS011;1003;48.002;7.788;2023-05-15T05:29:24;5.00;;;2.83;;
2001;SDS011;1003;48.002;7.788;2023-05-15T05:31:51;3.10;;;2.80;;
2001;SDS011;1003;48.002;7.788;2023-05-15T05:34:19;3.17;;;2.20;;
2001;SDS011;1003;48.002;7.788;2023-05-15T05:36:46;3.03;;;2.73;;
2001;SDS011;1003;48.002;7.788;2023-05-15T05:39:16;2.70;;;2.20;;
2001;SDS011;1003;48.002;7.788;2023-05-15T05:41:43;3.00;;;2.63;;
2001;SDS011;1003;48.002;7.788;2023-05-15T05:44:11;2.60;;;2.37;;
2001;SDS011;1003;48.002;7.788;2023-05-15T05:46:39;3.07;;;2.30;;
2001;SDS011;1003;48.002;7.788;2023-05-15T05:49:06;2.67;;;2.47;;
2001;SDS011;1003;48.002;7.788;2023-05-15T05:51:33;2.37;;;2.17;;
2001;SDS011;1003;48.002;7.788;2023-05-15T05:54:02;3.57;;;2.80;;
2001;SDS011;1003;48.002;7.788;2023-05-15T05:56:30;2.77;;;2.40;;
2001;SDS011;1003;48.002;7.788;2023-05-15T05:58:58;3.13;;;2.30;;
2001;SDS011;1003;48.002;7.788;2023-05-15T06:01:26;2.87;;;2.57;;
2001;SDS011;1003;48.002;7.788;2023-05-15T06:03:53;4.13;;;2.50;;
2001;SDS011;1003;48.002;7.788;2023-05-15T06:06:21;3.27;;;2.60;;
2001;SDS011;1003;48.002;7.788;2023-05-15T06:08:48;4.13;;;2.67;;
2001;SDS011;1003;48.002;7.788;2023-05-15T06:11:15;3.10;;;2.57;;
2001;SDS011;1003;48.002;7.788;2023-05-15T06:13:43;3.77;;;2.70;;
2001;SDS011;1003;48.002;7.788;2023-05-15T06:16:10;4.47;;;2.63;;
2001;SDS011;1003;48.002;7.788;2023-05-15T06:18:37;4.23;;;3.00;;
2001;SDS011;1003;48.002;7.788;2023-05-15T06:21:04;4.30;;;2.90;;
2001;SDS011;1003;48.002;7.788;2023-05-15T06:23:31;3.03;;;2.63;;
2001;SDS011;1003;48.002;7.788;2023-05-15T06:25:58;3.40;;;2.93;;
2001;SDS011;1003;48.002;7.788;2023-05-15T06:28:26;3.37;;;2.90;;
2001;SDS011;1003;48.002;7.788;2023-05-15T06:30:55;3.83;;;2.97;;
2001;SDS011;1003;48.002;7.788;2023-05-15T06:33:22;3.77;;;2.63;;
2001;SDS011;1003;48.002;7.788;2023-05-15T06:35:49;3.00;;;2.70;;
2001;SDS011;1003;48.002;7.788;2023-05-15T06:38:16;4.70;;;2.90;;
2001;SDS011;1003;48.002;7.788;2023-05-15T06:40:43;3.37;;;2.60;;
2001;SDS011;1003;48.002;7.788;2023-05-15T06:43:10;4.37;;;2.80;;
2001;SDS011;1003;48.002;7.788;2023-05-15T06:45:37;6.07;;;3.03;;
2001;SDS011;1003;48.002;7.788;2023-05-15T06:48:06;5.00;;;2.70;;
2001;SDS011;1003;48.002;7.788;2023-05-15T06:50:34;4.10;;;3.00;;
2001;SDS011;1003;48.002;7.788;2023-05-15T06:53:01;5.10;;;2.80;;
2001;SDS011;1003;48.002;7.788;2023-05-15T06:55:28;3.57;;;2.80;;
2001;SDS011;1003;48.002;7.788;2023-05-15T06:57:55;2.80;;;2.50;;
2001;SDS011;1003;48.002;7.788;2023-05-15T07:00:22;4.77;;;2.90;;
2001;SDS011;1003;48.002;7.788;2023-05-15T07:02:50;3.70;;;3.20;;
2001;SDS011;1003;48.002;7.788;2023-05-15T07:05:18;3.50;;;3.20;;
2001;SDS011;1003;48.002;7.788;2023-05-15T07:07:46;5.83;;;3.47;;
2001;SDS011;1003;48.002;7.788;2023-05-15T07:10:13;4.43;;;3.80;;
2001;SDS011;1003;48.002;7.788;2023-05-15T07:12:40;4.93;;;3.40;;
2001;SDS011;1003;48.002;7.788;2023-05-15T07:15:07;5.07;;;3.43;;
2001;SDS011;1003;48.002;7.788;2023-05-15T07:17:35;4.67;;;3.33;;
2001;SDS011;1003;48.002;7.788;2023-05-15T07:20:03;4.87;;;3.67;;
2001;SDS011;1003;48.002;7.788;2023-05-15T07:22:32;5.47;;;3.47;;
2001;SDS011;1003;48.002;7.788;2023-05-15T07:24:59;4.17;;;3.10;;
2001;SDS011;1003;48.002;7.788;2023-05-15T07:27:26;3.83;;;3.50;;
2001;SDS011;1003;48.002;7.788;2023-05-15T07:29:53;5.13;;;3.60;;
2001;SDS011;1003;48.002;7.788;2023-05-15T07:32:21;4.70;;;3.63;;
2001;SDS011;1003;48.002;7.788;2023-05-15T07:34:48;4.27;;;3.80;;
2001;SDS011;1003;48.002;7.788;2023-05-15T07:37:16;5.47;;;4.30;;
2001;SDS011;1003;48.002;7.788;2023-05-15T07:39:44;5.07;;;3.50;;
2001;SDS011;1003;48.002;7.788;2023-05-15T07:42:11;4.47;;;3.90;;
2001;SDS011;1003;48.002;7.788;2023-05-15T07:44:38;6.07;;;4.10;;
2001;SDS011;1003;48.002;7.788;2023-05-15T07:47:05;6.40;;;4.40;;
2001;SDS011;1003;48.002;7.788;2023-05-15T07:49:32;6.53;;;4.43;;
2001;SDS011;1003;48.002;7.788;2023-05-15T07:51:59;5.53;;;4.50;;
2001;SDS011;1003;48.002;7.788;2023-05-15T07:54:26;4.80;;;3.93;;
2001;SDS011;1003;48.002;7.788;2023-05-15T07:56:57;5.70;;;4.93;;
2001;SDS011;1003;48.002;7.788;2023-05-15T07:59:24;4.73;;;4.00;;
2001;SDS011;1003;48.002;7.788;2023-05-15T08:01:51;4.67;;;3.90;;
2001;SDS011;1003;48.002;7.788;2023-05-15T08:04:18;4.30;;;3.87;;
2001;SDS011;1003;48.002;7.788;2023-05-15T08:06:45;4.77;;;4.20;;
2001;SDS011;1003;48.002;7.788;2023-05-15T08:09:12;4.63;;;4.20;;
2001;SDS011;1003;48.002;7.788;2023-05-15T08:11:39;4.53;;;4.03;;
2001;SDS011;1003;48.002;7.788;2023-05-15T08:14:08;6.93;;;4.30;;
2001;SDS011;1003;48.002;7.788;2023-05-15T08:16:35;6.30;;;4.40;;
2001;SDS011;1003;48.002;7.788;2023-05-15T08:19:02;6.60;;;4.37;;
2001;SDS011;1003;48.002;7.788;2023-05-15T08:21:31;7.03;;;4.63;;
2001;SDS011;1003;48.002;7.788;2023-05-15T08:23:59;5.57;;;4.67;;
2001;SDS011;1003;48.002;7.788;2023-05-15T08:26:26;6.13;;;4.50;;
2001;SDS011;1003;48.002;7.788;2023-05-15T08:28:53;6.93;;;4.90;;
2001;SDS011;1003;48.002;7.788;2023-05-15T08:31:21;6.30;;;4.90;;
2001;SDS011;1003;48.002;7.788;2023-05-15T08:33:48;6.37;;;5.03;;
2001;SDS011;1003;48.002;7.788;2023-05-15T08:36:15;7.00;;;4.73;;
2001;SDS011;1003;48.002;7.788;2023-05-15T08:38:43;6.00;;;4.43;;
2001;SDS011;1003;48.002;7.788;2023-05-15T08:41:12;6.40;;;4.47;;
2001;SDS011;1003;48.002;7.788;2023-05-15T08:43:55;5.50;;;4.30;;
2001;SDS011;1003;48.002;7.788;2023-05-15T08:46:25;6.03;;;4.67;;
2001;SDS011;1003;48.002;7.788;2023-05-15T08:48:53;5.50;;;4.67;;
2001;SDS011;1003;48.002;7.788;2023-05-15T08:51:23;4.90;;;4.20;;
2001;SDS011;1003;48.002;7.788;2023-05-15T08:53:50;5.07;;;4.47;;
2001;SDS011;1003;48.002;7.788;2023-05-15T08:56:18;8.23;;;5.03;;
2001;SDS011;1003;48.002;7.788;2023-05-15T08:58:45;5.90;;;4.83;;
2001;SDS011;1003;48.002;7.788;2023-05-15T09:01:13;4.90;;;4.30;;
2001;SDS011;1003;48.002;7.788;2023-05-15T09:03:43;5.70;;;5.10;;
2001;SDS011;1003;48.002;7.788;2023-05-15T09:06:10;5.30;;;4.80;;
2001;SDS011;1003;48.002;7.788;2023-05-15T09:08:38;7.67;;;5.47;;
2001;SDS011;1003;48.002;7.788;2023-05-15T09:11:08;5.77;;;5.17;;
2001;SDS011;1003;48.002;7.788;2023-05-15T09:13:37;4.93;;;4.43;;
2001;SDS011;1003;48.002;7.788;2023-05-15T09:16:05;7.33;;;4.90;;
2001;SDS011;1003;48.002;7.788;2023-05-15T09:18:33;6.20;;;4.73;;
2001;SDS011;1003;48.002;7.788;2023-05-15T09:23:50;7.67;;;5.23;;
2001;SDS011;1003;48.002;7.788;2023-05-15T09:26:17;8.70;;;5.20;;
2001;SDS011;1003;48.002;7.788;2023-05-15T09:28:46;6.03;;;5.30;;
2001;SDS011;1003;48.002;7.788;2023-05-15T09:31:17;6.63;;;5.03;;
2001;SDS011;1003;48.002;7.788;2023-05-15T09:33:46;6.67;;;5.17;;
2001;SDS011;1003;48.002;7.788;2023-05-15T09:36:27;6.00;;;4.87;;
2001;SDS011;1003;48.002;7.788;2023-05-15T09:38:56;7.33;;;5.10;;
2001;SDS011;1003;48.002;7.788;2023-05-15T09:41:25;6.63;;;5.30;;
2001;SDS011;1003;48.002;7.788;2023-05-15T09:43:53;7.17;;;4.60;;
2001;SDS011;1003;48.002;7.788;2023-05-15T09:46:21;6.40;;;4.90;;
2001;SDS011;1003;48.002;7.788;2023-05-15T09:48:49;6.83;;;4.70;;
2001;SDS011;1003;48.002;7.788;2023-05-15T09:51:20;5.93;;;4.03;;
2001;SDS011;1003;48.002;7.788;2023-05-15T09:53:50;5.97;;;4.30;;
2001;SDS011;1003;48.002;7.788;2023-05-15T09:56:18;5.77;;;4.87;;
2001;SDS011;1003;48.002;7.788;2023-05-15T09:58:52;7.43;;;5.70;;
2001;SDS011;1003;48.002;7.788;2023-05-15T10:01:20;6.73;;;5.30;;
2001;SDS011;1003;48.002;7.788;2023-05-15T10:03:57;6.70;;;5.70;;
2001;SDS011;1003;48.002;7.788;2023-05-15T10:06:25;5.47;;;4.97;;
2001;SDS011;1003;48.002;7.788;2023-05-15T10:08:54;5.80;;;5.00;;
2001;SDS011;1003;48.002;7.788;2023-05-15T10:11:22;7.33;;;5.50;;
2001;SDS011;1003;48.002;7.788;2023-05-15T10:13:51;6.27;;;5.27;;
2001;SDS011;1003;48.002;7.788;2023-05-15T10:16:19;6.43;;;5.00;;
2001;SDS011;1003;48.002;7.788;2023-05-15T10:18:47;6.57;;;4.10;;
2001;SDS011;1003;48.002;7.788;2023-05-15T10:21:17;4.30;;;3.70;;
2001;SDS011;1003;48.002;7.788;2023-05-15T10:23:48;7.00;;;3.90;;
2001;SDS011;1003;48.002;7.788;2023-05-15T10:26:21;4.80;;;3.80;;
2001;SDS011;1003;48.002;7.788;2023-05-15T10:28:58;4.57;;;3.70;;
2001;SDS011;1003;48.002;7.788;2023-05-15T10:31:27;4.63;;;3.73;;
2001;SDS011;1003;48.002;7.788;2023-05-15T10:33:56;4.03;;;3.13;;
2001;SDS011;1003;48.002;7.788;2023-05-15T10:36:25;5.03;;;3.60;;
2001;SDS011;1003;48.002;7.788;2023-05-15T10:38:53;3.30;;;3.00;;
2001;SDS011;1003;48.002;7.788;2023-05-15T10:41:21;3.67;;;3.17;;
2001;SDS011;1003;48.002;7.788;2023-05-15T10:43:50;5.00;;;3.50;;
2001;SDS011;1003;48.002;7.788;2023-05-15T10:46:19;3.60;;;3.30;;
2001;SDS011;1003;48.002;7.788;2023-05-15T10:48:47;4.03;;;3.40;;
2001;SDS011;1003;48.002;7.788;2023-05-15T10:51:16;4.40;;;3.60;;
2001;SDS011;1003;48.002;7.788;2023-05-15T10:53:49;4.03;;;3.63;;
2001;SDS011;1003;48.002;7.788;2023-05-15T10:56:24;5.47;;;4.40;;
2001;SDS011;1003;48.002;7.788;2023-05-15T10:58:54;5.60;;;4.37;;
2001;SDS011;1003;48.002;7.788;2023-05-15T11:01:28;5.47;;;4.60;;
2001;SDS011;1003;48.002;7.788;2023-05-15T11:04:04;5.80;;;3.93;;
2001;SDS011;1003;48.002;7.788;2023-05-15T11:06:37;4.60;;;3.97;;
2001;SDS011;1003;48.002;7.788;2023-05-15T11:12:03;6.43;;;4.20;;
2001;SDS011;1003;48.002;7.788;2023-05-15T11:14:34;3.70;;;3.33;;
2001;SDS011;1003;48.002;7.788;2023-05-15T11:17:05;5.13;;;4.23;;
2001;SDS011;1003;48.002;7.788;2023-05-15T11:19:38;6.03;;;4.00;;
2001;SDS011;1003;48.002;7.788;2023-05-15T11:22:25;5.83;;;4.60;;
2001;SDS011;1003;48.002;7.788;2023-05-15T11:24:57;6.27;;;4.70;;
2001;SDS011;1003;48.002;7.788;2023-05-15T11:27:29;4.63;;;3.73;;
2001;SDS011;1003;48.002;7.788;2023-05-15T11:30:07;4.43;;;4.00;;
2001;SDS011;1003;48.002;7.788;2023-05-15T11:35:23;5.07;;;4.37;;
2001;SDS011;1003;48.002;7.788;2023-05-15T11:37:54;5.43;;;4.10;;
2001;SDS011;1003;48.002;7.788;2023-05-15T11:40:27;5.20;;;4.17;;
2001;SDS011;1003;48.002;7.788;2023-05-15T11:43:03;4.90;;;4.40;;
2001;SDS011;1003;48.002;7.788;2023-05-15T11:45:34;4.47;;;4.03;;
2001;SDS011;1003;48.002;7.788;2023-05-15T11:48:05;5.97;;;4.30;;
2001;SDS011;1003;48.002;7.788;2023-05-15T11:50:37;5.10;;;3.97;;
2001;SDS011;1003;48.002;7.788;2023-05-15T11:53:07;6.40;;;4.43;;
2001;SDS011;1003;48.002;7.788;2023-05-15T11:55:36;4.80;;;3.80;;
2001;SDS011;1003;48.002;7.788;2023-05-15T11:58:11;4.90;;;4.40;;
2001;SDS011;1003;48.002;7.788;2023-05-15T12:00:40;5.23;;;4.73;;
2001;SDS011;1003;48.002;7.788;2023-05-15T12:03:10;5.57;;;4.47;;
2001;SDS011;1003;48.002;7.788;2023-05-15T12:05:43;6.70;;;4.23;;
2001;SDS011;1003;48.002;7.788;2023-05-15T12:08:10;3.67;;;3.37;;
2001;SDS011;1003;48.002;7.788;2023-05-15T12:10:40;6.57;;;4.20;;
2001;SDS011;1003;48.002;7.788;2023-05-15T12:13:08;4.40;;;4.00;;
2001;SDS011;1003;48.002;7.788;2023-05-15T12:15:38;3.60;;;3.30;;
2001;SDS011;1003;48.002;7.788;2023-05-15T12:18:08;5.23;;;4.20;;
2001;SDS011;1003;48.002;7.788;2023-05-15T12:20:37;6.60;;;4.77;;
2001;SDS011;1003;48.002;7.788;2023-05-15T12:23:08;5.10;;;4.37;;
2001;SDS011;1003;48.002;7.788;2023-05-15T12:25:36;4.40;;;3.77;;
2001;SDS011;1003;48.002;7.788;2023-05-15T12:28:03;4.83;;;4.10;;
2001;SDS011;1003;48.002;7.788;2023-05-15T12:30:32;4.37;;;3.77;;
2001;SDS011;1003;48.002;7.788;2023-05-15T12:33:01;4.40;;;3.27;;
2001;SDS011;1003;48.002;7.788;2023-05-15T12:35:31;5.20;;;3.30;;
2001;SDS011;1003;48.002;7.788;2023-05-15T12:37:59;4.67;;;3.70;;
2001;SDS011;1003;48.002;7.788;2023-05-15T12:40:28;4.90;;;3.47;;
2001;SDS011;1003;48.002;7.788;2023-05-15T12:42:58;3.33;;;2.87;;
2001;SDS011;1003;48.002;7.788;2023-05-15T12:45:32;3.13;;;2.50;;
2001;SDS011;1003;48.002;7.788;2023-05-15T12:48:01;3.70;;;2.60;;
2001;SDS011;1003;48.002;7.788;2023-05-15T12:50:32;3.03;;;2.30;;
2001;SDS011;1003;48.002;7.788;2023-05-15T12:53:02;2.37;;;2.17;;
2001;SDS011;1003;48.002;7.788;2023-05-15T12:55:30;2.10;;;2.00;;
2001;SDS011;1003;48.002;7.788;2023-05-15T12:58:00;2.67;;;2.47;;
2001;SDS011;1003;48.002;7.788;2023-05-15T13:00:32;2.47;;;2.27;;
2001;SDS011;1003;48.002;7.788;2023-05-15T13:03:02;2.60;;;2.40;;
2001;SDS011;1003;48.002;7.788;2023-05-15T13:05:30;2.47;;;2.27;;
2001;SDS011;1003;48.002;7.788;2023-05-15T13:08:00;1.90;;;1.80;;
2001;SDS011;1003;48.002;7.788;2023-05-15T13:10:30;2.10;;;1.90;;
2001;SDS011;1003;48.002;7.788;2023-05-15T13:12:59;3.40;;;2.00;;
2001;SDS011;1003;48.002;7.788;2023-05-15T13:15:28;2.10;;;2.00;;
2001;SDS011;1003;48.002;7.788;2023-05-15T13:18:01;2.63;;;2.10;;
2001;SDS011;1003;48.002;7.788;2023-05-15T13:20:31;2.40;;;2.20;;
2001;SDS011;1003;48.002;7.788;2023-05-15T13:23:04;2.67;;;2.47;;
2001;SDS011;1003;48.002;7.788;2023-05-15T13:25:32;2.70;;;2.50;;
2001;SDS011;1003;48.002;7.788;2023-05-15T13:28:00;3.37;;;2.90;;
2001;SDS011;1003;48.002;7.788;2023-05-15T13:30:29;2.80;;;2.60;;
2001;SDS011;1003;48.002;7.788;2023-05-15T13:32:58;2.90;;;2.70;;
2001;SDS011;1003;48.002;7.788;2023-05-15T13:35:26;3.00;;;2.70;;
2001;SDS011;1003;48.002;7.788;2023-05-15T13:37:54;2.70;;;2.50;;
2001;SDS011;1003;48.002;7.788;2023-05-15T13:40:21;3.83;;;3.00;;
2001;SDS011;1003;48.002;7.788;2023-05-15T13:42:48;2.83;;;2.60;;
2001;SDS011;1003;48.002;7.788;2023-05-15T13:45:16;2.90;;;2.63;;
2001;SDS011;1003;48.002;7.788;2023-05-15T13:47:43;2.67;;;2.30;;
2001;SDS011;1003;48.002;7.788;2023-05-15T13:50:11;2.50;;;2.30;;
2001;SDS011;1003;48.002;7.788;2023-05-15T13:52:42;2.47;;;2.27;;
2001;SDS011;1003;48.002;7.788;2023-05-15T13:55:11;4.23;;;2.50;;
2001;SDS011;1003;48.002;7.788;2023-05-15T13:57:39;2.30;;;2.10;;
2001;SDS011;1003;48.002;7.788;2023-05-15T14:00:08;2.40;;;2.20;;
2001;SDS011;1003;48.002;7.788;2023-05-15T14:02:37;2.60;;;2.40;;
2001;SDS011;1003;48.002;7.788;2023-05-15T14:05:05;2.70;;;2.50;;
2001;SDS011;1003;48.002;7.788;2023-05-15T14:07:34;2.43;;;2.23;;
2001;SDS011;1003;48.002;7.788;2023-05-15T14:10:02;2.73;;;2.33;;
2001;SDS011;1003;48.002;7.788;2023-05-15T14:12:30;2.90;;;2.60;;
2001;SDS011;1003;48.002;7.788;2023-05-15T14:14:58;2.87;;;2.43;;
2001;SDS011;1003;48.002;7.788;2023-05-15T14:17:25;4.50;;;2.60;;
2001;SDS011;1003;48.002;7.788;2023-05-15T14:19:53;3.13;;;2.40;;
2001;SDS011;1003;48.002;7.788;2023-05-15T14:22:20;2.70;;;2.37;;
2001;SDS011;1003;48.002;7.788;2023-05-15T14:24:48;3.30;;;2.70;;
2001;SDS011;1003;48.002;7.788;2023-05-15T14:27:17;2.93;;;2.50;;
2001;SDS011;1003;48.002;7.788;2023-05-15T14:29:45;4.53;;;2.80;;
2001;SDS011;1003;48.002;7.788;2023-05-15T14:32:13;3.63;;;2.80;;
2001;SDS011;1003;48.002;7.788;2023-05-15T14:34:41;4.07;;;3.50;;
2001;SDS011;1003;48.002;7.788;2023-05-15T14:37:08;5.10;;;3.30;;
2001;SDS011;1003;48.002;7.788;2023-05-15T14:39:35;4.20;;;3.20;;
2001;SDS011;1003;48.002;7.788;2023-05-15T14:42:02;3.50;;;3.20;;
2001;SDS011;1003;48.002;7.788;2023-05-15T14:44:31;3.27;;;2.97;;
2001;SDS011;1003;48.002;7.788;2023-05-15T14:47:05;4.83;;;3.40;;
2001;SDS011;1003;48.002;7.788;2023-05-15T14:49:34;4.30;;;3.13;;
2001;SDS011;1003;48.002;7.788;2023-05-15T14:52:02;3.53;;;3.07;;
2001;SDS011;1003;48.002;7.788;2023-05-15T14:54:35;2.90;;;2.70;;
2001;SDS011;1003;48.002;7.788;2023-05-15T14:57:03;3.60;;;2.90;;
2001;SDS011;1003;48.002;7.788;2023-05-15T14:59:32;3.03;;;2.70;;
2001;SDS011;1003;48.002;7.788;2023-05-15T15:01:59;3.47;;;2.53;;
2001;SDS011;1003;48.002;7.788;2023-05-15T15:04:27;4.87;;;2.53;;
2001;SDS011;1003;48.002;7.788;2023-05-15T15:06:58;3.37;;;2.40;;
2001;SDS011;1003;48.002;7.788;2023-05-15T15:09:28;4.50;;;2.33;;
2001;SDS011;1003;48.002;7.788;2023-05-15T15:11:55;2.70;;;2.30;;
2001;SDS011;1003;48.002;7.788;2023-05-15T15:14:22;2.60;;;2.40;;
2001;SDS011;1003;48.002;7.788;2023-05-15T15:16:51;4.00;;;2.53;;
2001;SDS011;1003;48.002;7.788;2023-05-15T15:19:18;1.90;;;1.80;;
2001;SDS011;1003;48.002;7.788;2023-05-15T15:21:45;2.50;;;2.30;;
2001;SDS011;1003;48.002;7.788;2023-05-15T15:24:12;2.53;;;2.33;;
2001;SDS011;1003;48.002;7.788;2023-05-15T15:26:39;2.40;;;2.20;;
2001;SDS011;1003;48.002;7.788;2023-05-15T15:29:06;2.13;;;2.03;;
2001;SDS011;1003;48.002;7.788;2023-05-15T15:31:33;2.33;;;2.13;;
2001;SDS011;1003;48.002;7.788;2023-05-15T15:34:02;2.20;;;2.00;;
2001;SDS011;1003;48.002;7.788;2023-05-15T15:36:29;3.07;;;2.20;;
2001;SDS011;1003;48.002;7.788;2023-05-15T15:38:56;2.23;;;2.03;;